Time;durP1;ratioP1;P1;durP2;ratioP2;P2;SDS_P1;SDS_P2;PMS_P1;PMS_P2;Temp;Humidity;BMP_temperature;BMP_pressure;BME280_temperature;BME280_humidity;BME280_pressure;Samples;Min_cycle;Max_cycle;Signal;HPM_P1;HPM_P2
2023/12/14 00:01:42;;;;;;;12.18;7.60;;;;;;;;;;5051896;28;20760;-77
2023/12/14 00:04:08;;;;;;;13.57;7.80;;;;;;;;;;5056597;28;20396;-78
2023/12/14 00:06:34;;;;;;;11.48;7.10;;;;;;;;;;5055744;28;20405;-77
2023/12/14 00:09:00;;;;;;;14.15;7.75;;;;;;;;;;5072401;28;20918;-77
2023/12/14 00:11:26;;;;;;;12.70;7.53;;;;;;;;;;5070825;28;20435;-77
2023/12/14 00:13:52;;;;;;;12.38;7.85;;;;;;;;;;5072281;28;20476;-77
2023/12/14 00:16:18;;;;;;;13.70;7.65;;;;;;;;;;5071938;28;20396;-77
2023/12/14 00:18:44;;;;;;;17.53;9.37;;;;;;;;;;5072382;28;20403;-77
2023/12/14 00:21:10;;;;;;;15.85;8.43;;;;;;;;;;5072404;28;20469;-77
2023/12/14 00:23:36;;;;;;;15.48;8.40;;;;;;;;;;5055022;28;20400;-77
2023/12/14 00:26:03;;;;;;;13.05;7.93;;;;;;;;;;5072849;28;20399;-77
2023/12/14 00:28:29;;;;;;;13.40;8.02;;;;;;;;;;5070831;28;20832;-77
2023/12/14 00:30:55;;;;;;;15.25;7.97;;;;;;;;;;5056551;28;20443;-79
2023/12/14 00:33:21;;;;;;;12.83;7.70;;;;;;;;;;5071702;28;20400;-78
2023/12/14 00:35:47;;;;;;;13.30;7.55;;;;;;;;;;5072441;28;20944;-78
2023/12/14 00:38:13;;;;;;;12.32;7.47;;;;;;;;;;5071564;28;20891;-79
2023/12/14 00:40:40;;;;;;;12.55;6.80;;;;;;;;;;5072697;28;20798;-79
2023/12/14 00:43:06;;;;;;;14.18;7.40;;;;;;;;;;5070643;28;20427;-79
2023/12/14 00:45:32;;;;;;;16.52;8.18;;;;;;;;;;5054931;28;20396;-78
2023/12/14 00:47:58;;;;;;;13.88;7.43;;;;;;;;;;5056049;28;20533;-78
2023/12/14 00:50:24;;;;;;;11.43;6.87;;;;;;;;;;5071488;28;20399;-78
2023/12/14 00:52:50;;;;;;;11.18;6.88;;;;;;;;;;5072384;28;20404;-78
2023/12/14 00:55:16;;;;;;;12.18;7.03;;;;;;;;;;5071544;28;20457;-79
2023/12/14 00:57:42;;;;;;;11.87;6.70;;;;;;;;;;5078312;28;20416;-79
2023/12/14 01:00:10;;;;;;;11.00;6.80;;;;;;;;;;5056837;28;20831;-79
2023/12/14 01:02:36;;;;;;;11.57;6.53;;;;;;;;;;5053224;28;20487;-79
2023/12/14 01:05:02;;;;;;;10.18;6.85;;;;;;;;;;5070770;28;20404;-79
2023/12/14 01:07:28;;;;;;;11.07;6.60;;;;;;;;;;5071531;28;20900;-79
2023/12/14 01:09:54;;;;;;;10.75;6.78;;;;;;;;;;5106016;28;20846;-79
2023/12/14 01:12:23;;;;;;;12.93;7.05;;;;;;;;;;5087878;28;21484;-80
2023/12/14 01:14:49;;;;;;;10.30;6.50;;;;;;;;;;5078557;28;20402;-79
2023/12/14 01:17:15;;;;;;;10.40;6.97;;;;;;;;;;5068384;28;20403;-79
2023/12/14 01:19:41;;;;;;;10.93;6.75;;;;;;;;;;5066099;28;20807;-79
2023/12/14 01:22:07;;;;;;;10.05;5.82;;;;;;;;;;5071684;28;20822;-79
2023/12/14 01:24:33;;;;;;;8.73;5.90;;;;;;;;;;5070713;28;20453;-78
2023/12/14 01:26:59;;;;;;;11.60;6.40;;;;;;;;;;5054560;28;20891;-78
2023/12/14 01:29:25;;;;;;;8.87;5.90;;;;;;;;;;5071635;28;20811;-77
2023/12/14 01:31:51;;;;;;;8.68;5.60;;;;;;;;;;5070916;28;20834;-77
2023/12/14 01:34:17;;;;;;;9.25;5.85;;;;;;;;;;5052882;28;20758;-77
2023/12/14 01:36:43;;;;;;;9.85;6.20;;;;;;;;;;5066690;28;20411;-77
2023/12/14 01:39:09;;;;;;;9.55;5.88;;;;;;;;;;5071190;28;20435;-77
2023/12/14 01:41:36;;;;;;;10.15;6.03;;;;;;;;;;5070788;28;20420;-77
2023/12/14 01:44:02;;;;;;;9.00;5.82;;;;;;;;;;5071422;28;20415;-77
2023/12/14 01:46:28;;;;;;;8.73;5.43;;;;;;;;;;5035912;28;20819;-77
2023/12/14 01:48:54;;;;;;;9.35;5.40;;;;;;;;;;5070797;28;20399;-77
2023/12/14 01:51:20;;;;;;;9.43;5.80;;;;;;;;;;5069598;28;20435;-78
2023/12/14 01:53:46;;;;;;;10.02;5.68;;;;;;;;;;5070581;28;20411;-78
2023/12/14 01:56:12;;;;;;;9.35;5.53;;;;;;;;;;5054354;28;20415;-77
2023/12/14 01:58:38;;;;;;;9.65;5.47;;;;;;;;;;5070257;28;20399;-77
2023/12/14 02:01:08;;;;;;;9.48;5.78;;;;;;;;;;5071028;28;20461;-77
2023/12/14 02:03:34;;;;;;;10.40;6.22;;;;;;;;;;5070661;28;20404;-77
2023/12/14 02:06:00;;;;;;;10.02;6.30;;;;;;;;;;5106263;27;20414;-77
2023/12/14 02:08:28;;;;;;;9.85;6.00;;;;;;;;;;5070048;28;20419;-77
2023/12/14 02:10:54;;;;;;;10.40;6.53;;;;;;;;;;5070091;28;20408;-77
2023/12/14 02:13:20;;;;;;;11.93;6.93;;;;;;;;;;5054320;28;20894;-77
2023/12/14 02:15:47;;;;;;;12.43;7.70;;;;;;;;;;5069779;28;20444;-77
2023/12/14 02:18:13;;;;;;;13.52;7.68;;;;;;;;;;5069957;28;20491;-77
2023/12/14 02:20:39;;;;;;;13.60;8.25;;;;;;;;;;5070598;28;20399;-77
2023/12/14 02:23:05;;;;;;;15.68;8.15;;;;;;;;;;5068714;28;20427;-77
2023/12/14 02:25:31;;;;;;;16.48;8.43;;;;;;;;;;5053617;28;20942;-77
2023/12/14 02:27:57;;;;;;;16.52;8.63;;;;;;;;;;5069386;28;20392;-77
2023/12/14 02:30:23;;;;;;;13.95;8.85;;;;;;;;;;5086870;28;20410;-77
2023/12/14 02:32:49;;;;;;;16.98;9.00;;;;;;;;;;5049546;28;20467;-77
2023/12/14 02:35:18;;;;;;;14.77;9.52;;;;;;;;;;5082801;28;20411;-77
2023/12/14 02:37:44;;;;;;;15.85;9.00;;;;;;;;;;5103993;28;20494;-77
2023/12/14 02:40:10;;;;;;;17.80;9.32;;;;;;;;;;5051650;28;20484;-78
2023/12/14 02:42:37;;;;;;;19.17;9.15;;;;;;;;;;5053774;28;20538;-78
2023/12/14 02:45:03;;;;;;;15.25;9.40;;;;;;;;;;5069421;28;20395;-78
2023/12/14 02:47:30;;;;;;;17.48;9.18;;;;;;;;;;5070053;28;20399;-79
2023/12/14 02:49:56;;;;;;;18.90;9.17;;;;;;;;;;5087586;28;20471;-79
2023/12/14 02:52:23;;;;;;;17.58;9.35;;;;;;;;;;5069758;28;20442;-79
2023/12/14 02:54:49;;;;;;;20.27;9.00;;;;;;;;;;5069859;28;20469;-79
2023/12/14 02:57:15;;;;;;;16.75;9.45;;;;;;;;;;5068200;28;20423;-79
2023/12/14 02:59:41;;;;;;;20.57;9.70;;;;;;;;;;5052465;28;20408;-79
2023/12/14 03:02:07;;;;;;;19.40;10.20;;;;;;;;;;5069738;28;20428;-80
2023/12/14 03:04:33;;;;;;;17.50;9.52;;;;;;;;;;5086457;28;20906;-81
2023/12/14 03:07:02;;;;;;;19.97;9.50;;;;;;;;;;5069541;28;20438;-80
2023/12/14 03:09:28;;;;;;;16.27;9.23;;;;;;;;;;5068774;28;20419;-80
2023/12/14 03:11:54;;;;;;;17.27;9.37;;;;;;;;;;5070281;28;20407;-81
2023/12/14 03:14:20;;;;;;;18.10;8.93;;;;;;;;;;5068855;28;20416;-81
2023/12/14 03:16:48;;;;;;;17.02;8.77;;;;;;;;;;5069654;28;20452;-80
2023/12/14 03:19:15;;;;;;;15.60;9.10;;;;;;;;;;5070376;28;20482;-80
2023/12/14 03:21:41;;;;;;;18.42;9.02;;;;;;;;;;5069668;28;20434;-80
2023/12/14 03:24:07;;;;;;;16.55;8.50;;;;;;;;;;5068348;28;20404;-80
2023/12/14 03:26:33;;;;;;;15.95;8.27;;;;;;;;;;5054205;28;20442;-80
2023/12/14 03:28:59;;;;;;;16.73;8.10;;;;;;;;;;5056815;28;20399;-80
2023/12/14 03:31:25;;;;;;;16.95;8.55;;;;;;;;;;5055121;28;20424;-80
2023/12/14 03:33:51;;;;;;;16.05;8.07;;;;;;;;;;5056863;28;20410;-80
2023/12/14 03:36:17;;;;;;;19.13;8.95;;;;;;;;;;5057338;28;20403;-80
2023/12/14 03:38:43;;;;;;;16.48;8.77;;;;;;;;;;5073555;28;20435;-80
2023/12/14 03:41:09;;;;;;;15.60;8.48;;;;;;;;;;5073304;28;20463;-80
2023/12/14 03:43:35;;;;;;;19.40;9.02;;;;;;;;;;5073480;28;20399;-80
2023/12/14 03:46:01;;;;;;;14.40;8.15;;;;;;;;;;5055252;28;20474;-79
2023/12/14 03:48:27;;;;;;;15.85;8.60;;;;;;;;;;5073059;28;20400;-79
2023/12/14 03:50:53;;;;;;;16.90;8.30;;;;;;;;;;5089532;28;20396;-80
2023/12/14 03:53:19;;;;;;;17.00;7.85;;;;;;;;;;5073035;28;20407;-80
2023/12/14 03:55:46;;;;;;;18.15;8.25;;;;;;;;;;5072888;28;20404;-80
2023/12/14 03:58:12;;;;;;;18.10;8.40;;;;;;;;;;5089916;28;20436;-80
2023/12/14 04:00:38;;;;;;;16.83;8.23;;;;;;;;;;5087427;28;20817;-79
2023/12/14 04:03:04;;;;;;;16.80;8.45;;;;;;;;;;5056630;28;20768;-79
2023/12/14 04:05:30;;;;;;;15.52;8.13;;;;;;;;;;5071775;28;20422;-80
2023/12/14 04:07:56;;;;;;;17.88;8.38;;;;;;;;;;5073171;28;20404;-78
2023/12/14 04:10:23;;;;;;;17.83;8.47;;;;;;;;;;5056363;28;20514;-78
2023/12/14 04:12:49;;;;;;;17.52;8.65;;;;;;;;;;5072717;28;20419;-78
2023/12/14 04:15:15;;;;;;;22.83;8.57;;;;;;;;;;5072403;28;20434;-78
2023/12/14 04:17:41;;;;;;;16.50;8.50;;;;;;;;;;5073184;28;20403;-78
2023/12/14 04:20:07;;;;;;;17.67;8.95;;;;;;;;;;5072669;28;20435;-78
2023/12/14 04:22:33;;;;;;;18.52;8.68;;;;;;;;;;5070884;28;20511;-78
2023/12/14 04:24:59;;;;;;;17.25;8.70;;;;;;;;;;5055832;28;20408;-78
2023/12/14 04:27:28;;;;;;;15.83;8.40;;;;;;;;;;5080083;28;20405;-78
2023/12/14 04:29:54;;;;;;;16.73;8.50;;;;;;;;;;5074727;28;20440;-78
2023/12/14 04:32:21;;;;;;;15.88;8.77;;;;;;;;;;5072484;28;20400;-78
2023/12/14 04:34:47;;;;;;;14.55;8.45;;;;;;;;;;5089546;28;20414;-78
2023/12/14 04:37:13;;;;;;;18.13;8.55;;;;;;;;;;5072803;28;20468;-78
2023/12/14 04:39:39;;;;;;;18.25;9.00;;;;;;;;;;5086974;28;20455;-78
2023/12/14 04:42:05;;;;;;;18.27;9.25;;;;;;;;;;5071773;28;20427;-78
2023/12/14 04:44:31;;;;;;;18.13;9.23;;;;;;;;;;5072556;28;20486;-79
2023/12/14 04:46:57;;;;;;;20.95;9.98;;;;;;;;;;5054649;28;20403;-78
2023/12/14 04:49:23;;;;;;;18.63;9.82;;;;;;;;;;5071632;28;20407;-78
2023/12/14 04:51:49;;;;;;;20.30;9.93;;;;;;;;;;5072427;28;20608;-78
2023/12/14 04:54:15;;;;;;;20.80;10.27;;;;;;;;;;5054797;28;20423;-78
2023/12/14 04:56:44;;;;;;;20.10;9.77;;;;;;;;;;5071949;28;20404;-78
2023/12/14 04:59:10;;;;;;;20.63;9.90;;;;;;;;;;5071325;28;20400;-78
2023/12/14 05:01:36;;;;;;;21.55;10.13;;;;;;;;;;5073882;28;20434;-78
2023/12/14 05:04:02;;;;;;;18.65;10.43;;;;;;;;;;5105397;28;20977;-78
2023/12/14 05:06:29;;;;;;;19.85;9.90;;;;;;;;;;5071992;28;20403;-78
2023/12/14 05:08:55;;;;;;;20.05;9.88;;;;;;;;;;5071434;28;20410;-78
2023/12/14 05:11:21;;;;;;;20.42;10.57;;;;;;;;;;5088316;28;20436;-78
2023/12/14 05:13:47;;;;;;;18.43;9.70;;;;;;;;;;5088230;28;20423;-78
2023/12/14 05:16:16;;;;;;;19.25;10.07;;;;;;;;;;5077932;28;20489;-78
2023/12/14 05:18:43;;;;;;;19.95;10.60;;;;;;;;;;5068592;28;20927;-78
2023/12/14 05:21:09;;;;;;;21.15;10.20;;;;;;;;;;5070682;28;20407;-78
2023/12/14 05:23:35;;;;;;;21.20;10.48;;;;;;;;;;5055290;28;20399;-78
2023/12/14 05:26:01;;;;;;;19.93;10.97;;;;;;;;;;5054923;28;20424;-78
2023/12/14 05:28:27;;;;;;;17.83;10.05;;;;;;;;;;5071305;28;20400;-78
2023/12/14 05:30:53;;;;;;;21.00;10.85;;;;;;;;;;5071173;28;20399;-78
2023/12/14 05:33:19;;;;;;;20.47;10.80;;;;;;;;;;5071077;28;20543;-78
2023/12/14 05:35:45;;;;;;;20.15;10.90;;;;;;;;;;5055213;28;20408;-79
2023/12/14 05:38:11;;;;;;;20.08;10.75;;;;;;;;;;5069676;28;20759;-78
2023/12/14 05:40:37;;;;;;;20.97;10.37;;;;;;;;;;5054315;28;20408;-78
2023/12/14 05:43:03;;;;;;;23.98;11.30;;;;;;;;;;5068893;28;20816;-79
2023/12/14 05:45:30;;;;;;;20.70;10.88;;;;;;;;;;5053385;28;20453;-76
2023/12/14 05:47:56;;;;;;;18.10;11.02;;;;;;;;;;5071038;28;20470;-77
2023/12/14 05:50:23;;;;;;;22.65;10.90;;;;;;;;;;5104607;28;20763;-76
2023/12/14 05:52:49;;;;;;;22.23;11.73;;;;;;;;;;5070050;28;20408;-77
2023/12/14 05:55:17;;;;;;;20.40;10.68;;;;;;;;;;5054733;28;20435;-77
2023/12/14 05:57:43;;;;;;;20.70;10.70;;;;;;;;;;5078876;28;20733;-77
2023/12/14 06:00:09;;;;;;;21.27;10.68;;;;;;;;;;5068296;28;20431;-77
2023/12/14 06:02:36;;;;;;;23.95;11.13;;;;;;;;;;5067925;28;20420;-77
2023/12/14 06:05:03;;;;;;;22.05;10.48;;;;;;;;;;5053037;28;20400;-79
2023/12/14 06:07:29;;;;;;;20.73;10.98;;;;;;;;;;5071134;28;20411;-79
2023/12/14 06:09:55;;;;;;;19.60;10.40;;;;;;;;;;5071163;28;20407;-79
2023/12/14 06:12:21;;;;;;;19.65;10.80;;;;;;;;;;5073994;28;20408;-79
2023/12/14 06:14:47;;;;;;;19.52;10.52;;;;;;;;;;5071469;28;20404;-77
2023/12/14 06:17:13;;;;;;;19.73;10.47;;;;;;;;;;5051373;28;20425;-78
2023/12/14 06:19:39;;;;;;;25.33;10.38;;;;;;;;;;5053077;28;20507;-79
2023/12/14 06:22:05;;;;;;;21.38;11.20;;;;;;;;;;5052698;28;20472;-79
2023/12/14 06:24:31;;;;;;;21.23;10.43;;;;;;;;;;5053365;28;20402;-79
2023/12/14 06:26:57;;;;;;;17.98;10.45;;;;;;;;;;5067430;28;20405;-79
2023/12/14 06:29:23;;;;;;;21.75;10.40;;;;;;;;;;5050445;28;20473;-79
2023/12/14 06:31:50;;;;;;;22.17;11.07;;;;;;;;;;5036424;28;21095;-80
2023/12/14 06:34:17;;;;;;;20.05;10.90;;;;;;;;;;5069204;28;20525;-79
2023/12/14 06:36:43;;;;;;;23.42;10.90;;;;;;;;;;5067869;28;20419;-79
2023/12/14 06:39:10;;;;;;;18.48;10.85;;;;;;;;;;5084860;28;21004;-80
2023/12/14 06:41:36;;;;;;;20.33;10.90;;;;;;;;;;5086788;28;20989;-82
2023/12/14 06:44:03;;;;;;;20.48;10.77;;;;;;;;;;5085389;28;20395;-78
2023/12/14 06:46:29;;;;;;;20.30;11.23;;;;;;;;;;5067616;28;20552;-78
2023/12/14 06:48:55;;;;;;;21.58;10.77;;;;;;;;;;5051400;28;20396;-77
2023/12/14 06:51:22;;;;;;;21.88;11.13;;;;;;;;;;5051659;28;20457;-77
2023/12/14 06:53:48;;;;;;;20.88;10.57;;;;;;;;;;5068184;28;20527;-77
2023/12/14 06:56:14;;;;;;;23.45;11.70;;;;;;;;;;5068113;28;20411;-80
2023/12/14 06:58:41;;;;;;;21.02;10.93;;;;;;;;;;5050605;28;20395;-78
2023/12/14 07:01:07;;;;;;;24.77;11.43;;;;;;;;;;5068549;28;20415;-83
2023/12/14 07:03:33;;;;;;;19.42;10.70;;;;;;;;;;5053403;28;20969;-83
2023/12/14 07:06:00;;;;;;;21.70;11.35;;;;;;;;;;5081891;28;20491;-82
2023/12/14 07:08:26;;;;;;;22.42;10.93;;;;;;;;;;5069105;28;20403;-78
2023/12/14 07:10:52;;;;;;;21.73;11.73;;;;;;;;;;5051710;28;20418;-79
2023/12/14 07:13:18;;;;;;;22.27;11.73;;;;;;;;;;5043144;28;20414;-81
2023/12/14 07:15:44;;;;;;;22.25;11.50;;;;;;;;;;5103037;28;20443;-82
2023/12/14 07:18:10;;;;;;;22.55;11.65;;;;;;;;;;5052884;28;20399;-82
2023/12/14 07:20:36;;;;;;;27.88;11.90;;;;;;;;;;5053619;28;20427;-83
2023/12/14 07:23:02;;;;;;;19.55;11.25;;;;;;;;;;5051315;28;20445;-81
2023/12/14 07:25:28;;;;;;;19.90;11.02;;;;;;;;;;5070169;28;20775;-83
2023/12/14 07:27:54;;;;;;;20.13;11.43;;;;;;;;;;5069677;28;20737;-83
2023/12/14 07:30:20;;;;;;;22.65;11.32;;;;;;;;;;5053277;28;20774;-84
2023/12/14 07:32:46;;;;;;;21.77;11.40;;;;;;;;;;5052620;28;20403;-83
2023/12/14 07:35:12;;;;;;;23.88;11.10;;;;;;;;;;5068625;28;20763;-83
2023/12/14 07:37:38;;;;;;;24.25;12.13;;;;;;;;;;5047566;28;20950;-82
2023/12/14 07:40:05;;;;;;;25.10;12.40;;;;;;;;;;5074654;28;20403;-83
2023/12/14 07:42:31;;;;;;;24.98;12.50;;;;;;;;;;5050826;28;20477;-81
2023/12/14 07:44:57;;;;;;;26.60;12.60;;;;;;;;;;5083781;28;20443;-81
2023/12/14 07:47:23;;;;;;;21.67;11.68;;;;;;;;;;5077957;28;20419;-81
2023/12/14 07:49:49;;;;;;;23.23;11.83;;;;;;;;;;5070086;28;20438;-81
2023/12/14 07:52:15;;;;;;;21.85;12.27;;;;;;;;;;5064083;28;20411;-81
2023/12/14 07:54:42;;;;;;;20.88;11.23;;;;;;;;;;5086512;28;20403;-81
2023/12/14 07:57:08;;;;;;;24.73;12.68;;;;;;;;;;5051506;28;20478;-78
2023/12/14 07:59:34;;;;;;;27.17;12.32;;;;;;;;;;5070137;28;20451;-78
2023/12/14 08:02:00;;;;;;;20.03;11.13;;;;;;;;;;5101543;28;20427;-78
2023/12/14 08:04:26;;;;;;;24.13;12.32;;;;;;;;;;5100394;28;20418;-78
2023/12/14 08:06:52;;;;;;;26.60;12.88;;;;;;;;;;5084423;28;20399;-78
2023/12/14 08:09:18;;;;;;;28.57;13.27;;;;;;;;;;5069944;28;20494;-81
2023/12/14 08:11:44;;;;;;;24.80;12.52;;;;;;;;;;5067711;28;20490;-81
2023/12/14 08:14:10;;;;;;;25.08;12.40;;;;;;;;;;5074348;28;20759;-81
2023/12/14 08:16:36;;;;;;;21.90;12.18;;;;;;;;;;5051692;28;20419;-81
2023/12/14 08:19:02;;;;;;;24.58;12.30;;;;;;;;;;5084800;28;20411;-81
2023/12/14 08:21:28;;;;;;;73.38;21.33;;;;;;;;;;5071812;28;20480;-80
2023/12/14 08:23:54;;;;;;;25.30;11.77;;;;;;;;;;5071820;28;20404;-81
2023/12/14 08:26:21;;;;;;;22.77;12.23;;;;;;;;;;5105670;28;20396;-80
2023/12/14 08:28:47;;;;;;;29.40;12.75;;;;;;;;;;5072737;28;20399;-80
2023/12/14 08:31:13;;;;;;;31.52;12.18;;;;;;;;;;5089591;28;20419;-81
2023/12/14 08:33:41;;;;;;;24.75;12.63;;;;;;;;;;5067104;28;20394;-81
2023/12/14 08:36:08;;;;;;;23.17;11.65;;;;;;;;;;5104398;28;20407;-80
2023/12/14 08:38:34;;;;;;;23.40;11.57;;;;;;;;;;5072984;28;20498;-81
2023/12/14 08:41:00;;;;;;;26.48;12.23;;;;;;;;;;5071540;28;20415;-81
2023/12/14 08:43:26;;;;;;;27.33;12.97;;;;;;;;;;5071030;28;20416;-81
2023/12/14 08:45:52;;;;;;;25.88;13.77;;;;;;;;;;5055747;28;20895;-79
2023/12/14 08:48:19;;;;;;;24.02;12.63;;;;;;;;;;5087540;28;20392;-78
2023/12/14 08:50:45;;;;;;;27.55;13.30;;;;;;;;;;5071154;28;20428;-78
2023/12/14 08:53:11;;;;;;;25.50;13.45;;;;;;;;;;5070934;28;20486;-81
2023/12/14 08:55:37;;;;;;;24.60;12.27;;;;;;;;;;5069595;28;20481;-81
2023/12/14 08:58:04;;;;;;;27.27;13.32;;;;;;;;;;5091958;28;20449;-78
2023/12/14 09:00:30;;;;;;;33.05;14.60;;;;;;;;;;5054794;28;20870;-78
2023/12/14 09:02:56;;;;;;;23.60;12.00;;;;;;;;;;5068222;28;20503;-81
2023/12/14 09:05:22;;;;;;;24.63;12.23;;;;;;;;;;5054354;28;20399;-78
2023/12/14 09:07:48;;;;;;;27.75;11.98;;;;;;;;;;5071754;28;20392;-78
2023/12/14 09:10:14;;;;;;;23.17;12.25;;;;;;;;;;5071037;28;20416;-80
2023/12/14 09:12:40;;;;;;;24.42;12.82;;;;;;;;;;5088743;28;20407;-78
2023/12/14 09:15:06;;;;;;;26.60;13.30;;;;;;;;;;5054894;28;20434;-78
2023/12/14 09:17:33;;;;;;;26.30;13.32;;;;;;;;;;5055614;28;20517;-81
2023/12/14 09:19:59;;;;;;;25.73;13.18;;;;;;;;;;5052181;28;20438;-81
2023/12/14 09:22:25;;;;;;;27.25;13.52;;;;;;;;;;5052514;28;20455;-82
2023/12/14 09:24:52;;;;;;;24.10;13.13;;;;;;;;;;5091700;28;20445;-81
2023/12/14 09:27:18;;;;;;;27.63;13.15;;;;;;;;;;5057330;28;20463;-78
2023/12/14 09:29:44;;;;;;;23.45;11.68;;;;;;;;;;5069908;28;20996;-78
2023/12/14 09:32:10;;;;;;;23.15;11.60;;;;;;;;;;5070472;28;20919;-78
2023/12/14 09:34:36;;;;;;;29.45;13.40;;;;;;;;;;5085354;28;20415;-78
2023/12/14 09:37:03;;;;;;;23.50;12.70;;;;;;;;;;5053207;28;21080;-78
2023/12/14 09:39:29;;;;;;;25.70;12.55;;;;;;;;;;5103684;28;20419;-77
2023/12/14 09:42:05;;;;;;;23.25;12.23;;;;;;;;;;5053632;28;20430;-77
2023/12/14 09:44:32;;;;;;;24.83;12.00;;;;;;;;;;5070023;28;20447;-77
2023/12/14 09:47:02;;;;;;;22.15;12.10;;;;;;;;;;5070504;28;20419;-77
2023/12/14 09:49:30;;;;;;;22.70;11.73;;;;;;;;;;5069346;28;20412;-77
2023/12/14 09:52:00;;;;;;;26.27;13.02;;;;;;;;;;5069942;28;20427;-77
2023/12/14 09:54:27;;;;;;;25.85;12.43;;;;;;;;;;5070569;28;21002;-77
2023/12/14 09:56:53;;;;;;;23.92;12.57;;;;;;;;;;5067683;28;20818;-77
2023/12/14 09:59:20;;;;;;;25.83;12.43;;;;;;;;;;5069290;28;20918;-77
2023/12/14 10:01:46;;;;;;;24.95;12.95;;;;;;;;;;5069400;28;20434;-77
2023/12/14 10:04:13;;;;;;;23.17;12.25;;;;;;;;;;5084030;28;20465;-78
2023/12/14 10:06:40;;;;;;;22.73;12.10;;;;;;;;;;5079318;28;20415;-77
2023/12/14 10:09:10;;;;;;;25.45;11.82;;;;;;;;;;5069573;28;20411;-77
2023/12/14 10:11:37;;;;;;;23.85;12.82;;;;;;;;;;5071478;28;20815;-77
2023/12/14 10:14:06;;;;;;;23.40;11.68;;;;;;;;;;5086440;28;20426;-81
2023/12/14 10:16:33;;;;;;;24.50;12.88;;;;;;;;;;5069522;28;20490;-76
2023/12/14 10:19:00;;;;;;;23.33;12.45;;;;;;;;;;5069101;28;20450;-76
2023/12/14 10:21:29;;;;;;;28.52;12.63;;;;;;;;;;5053977;28;20477;-81
2023/12/14 10:23:56;;;;;;;29.42;13.35;;;;;;;;;;5068544;28;20427;-79
2023/12/14 10:26:24;;;;;;;27.55;14.02;;;;;;;;;;5052860;28;20910;-80
2023/12/14 10:28:51;;;;;;;23.92;12.48;;;;;;;;;;5070303;28;20522;-80
2023/12/14 10:31:19;;;;;;;33.55;15.02;;;;;;;;;;5103693;28;20411;-80
2023/12/14 10:33:45;;;;;;;24.92;13.40;;;;;;;;;;5087348;28;20883;-80
2023/12/14 10:36:12;;;;;;;23.98;12.80;;;;;;;;;;5071103;28;20800;-80
2023/12/14 10:38:39;;;;;;;21.85;11.80;;;;;;;;;;5068905;28;20438;-79
2023/12/14 10:41:07;;;;;;;26.30;13.40;;;;;;;;;;5070892;28;20498;-80
2023/12/14 10:43:34;;;;;;;22.48;11.55;;;;;;;;;;5052936;28;20430;-81
2023/12/14 10:46:02;;;;;;;24.37;11.50;;;;;;;;;;5100387;27;20492;-78
2023/12/14 10:48:29;;;;;;;29.60;14.77;;;;;;;;;;5065939;28;20420;-78
2023/12/14 10:50:57;;;;;;;26.88;12.65;;;;;;;;;;5066208;28;20419;-78
2023/12/14 10:53:23;;;;;;;26.35;12.32;;;;;;;;;;5057794;28;20401;-81
2023/12/14 10:55:51;;;;;;;30.92;14.32;;;;;;;;;;5081560;28;20449;-81
2023/12/14 10:58:20;;;;;;;24.70;11.60;;;;;;;;;;5080790;28;20423;-83
2023/12/14 11:01:00;;;;;;;19.55;11.15;;;;;;;;;;5084667;28;20412;-85
2023/12/14 11:03:26;;;;;;;43.93;15.90;;;;;;;;;;5070459;28;20765;-86
2023/12/14 11:05:53;;;;;;;18.90;10.55;;;;;;;;;;5052380;28;20419;-85
2023/12/14 11:08:26;;;;;;;18.60;10.20;;;;;;;;;;5053120;28;20465;-86
2023/12/14 11:11:10;;;;;;;19.85;10.75;;;;;;;;;;5053135;28;20412;-86
2023/12/14 11:13:40;;;;;;;18.55;10.90;;;;;;;;;;5085399;28;20420;-86
2023/12/14 11:16:15;;;;;;;18.13;10.30;;;;;;;;;;5069644;28;20402;-85
2023/12/14 11:18:41;;;;;;;20.17;11.10;;;;;;;;;;5079942;28;20416;-85
2023/12/14 11:21:08;;;;;;;19.67;10.88;;;;;;;;;;5070012;28;20404;-85
2023/12/14 11:23:36;;;;;;;20.33;10.32;;;;;;;;;;5076376;28;20420;-85
2023/12/14 11:26:24;;;;;;;30.40;12.30;;;;;;;;;;5104448;28;20414;-85
2023/12/14 11:28:50;;;;;;;32.50;14.10;;;;;;;;;;5077629;28;20424;-84
2023/12/14 11:31:49;;;;;;;21.95;11.30;;;;;;;;;;5053661;28;20434;-87
2023/12/14 11:34:22;;;;;;;17.23;10.43;;;;;;;;;;5052188;28;20405;-87
2023/12/14 11:36:49;;;;;;;17.58;10.80;;;;;;;;;;5058554;28;20401;-84
2023/12/14 11:39:43;;;;;;;16.02;10.13;;;;;;;;;;5100859;28;20429;-85
2023/12/14 12:00:17;;;;;;;16.83;9.38;;;;;;;;;;4919710;29;20404;-87
2023/12/14 12:10:03;;;;;;;16.33;10.02;;;6.70;99.90;;;;;;4935803;29;20894;-86
2023/12/14 12:12:47;;;;;;;19.80;10.27;;;;;;;;;;4938668;28;20423;-84
2023/12/14 12:15:35;;;;;;;17.58;10.38;;;6.70;99.90;;;;;;4941095;29;20440;-83
2023/12/14 12:18:13;;;;;;;17.63;10.70;;;;;;;;;;4967347;28;21030;-85
2023/12/14 12:20:39;;;;;;;15.77;10.02;;;;;;;;;;5046628;28;20407;-85
2023/12/14 12:23:06;;;;;;;18.08;10.63;;;;;;;;;;5074941;28;20428;-85
2023/12/14 12:25:32;;;;;;;16.30;10.68;;;;;;;;;;5057589;28;20392;-84
2023/12/14 12:28:11;;;;;;;20.10;11.43;;;;;;;;;;5073570;28;20396;-87
2023/12/14 12:30:40;;;;;;;16.33;10.60;;;;;;;;;;5064111;28;20428;-86
2023/12/14 12:33:15;;;;;;;17.75;10.45;;;;;;;;;;5070378;28;20459;-85
2023/12/14 12:36:06;;;;;;;18.52;10.40;;;6.50;99.90;;;;;;5069541;28;20408;-85
2023/12/14 12:42:13;;;;;;;17.45;11.63;;;;;;;;;;5048148;28;20424;-85
2023/12/14 12:44:43;;;;;;;17.87;10.37;;;;;;;;;;5029652;28;21009;-86
2023/12/14 12:47:16;;;;;;;16.55;10.07;;;;;;;;;;5044653;28;20762;-87
2023/12/14 12:50:02;;;;;;;17.98;10.55;;;;;;;;;;5052144;28;20408;-87
2023/12/14 12:52:35;;;;;;;15.15;10.20;;;;;;;;;;5070266;28;20891;-87
2023/12/14 12:55:35;;;;;;;16.17;10.40;;;;;;;;;;5089618;28;20416;-85
2023/12/14 13:08:17;;;;;;;18.98;10.73;;;;;;;;;;5069699;28;20378;-85
2023/12/14 13:14:16;;;;;;;14.88;9.23;;;;;;;;;;5067415;28;20404;-85
2023/12/14 13:20:24;;;;;;;15.95;10.35;;;;;;;;;;5073858;28;20371;-87
2023/12/14 13:29:38;;;;;;;19.35;11.95;;;;;;;;;;5064568;28;20404;-85
2023/12/14 13:32:14;;;;;;;20.00;11.10;;;;;;;;;;5055404;28;20395;-87
2023/12/14 13:34:40;;;;;;;17.52;11.35;;;;;;;;;;5067879;28;20419;-88
2023/12/14 13:37:37;;;;;;;17.50;11.23;;;;;;;;;;5088684;28;20399;-85
2023/12/14 13:44:03;;;;;;;17.77;10.97;;;;;;;;;;5079357;28;20501;-87
2023/12/14 13:46:52;;;;;;;19.52;11.30;;;6.70;99.90;;;;;;5088917;28;20396;-85
2023/12/14 14:13:24;;;;;;;18.92;11.20;;;;;;;;;;5050608;28;20415;-85
2023/12/14 14:23:23;;;;;;;19.33;10.82;;;;;;;;;;5090501;28;20417;-85
2023/12/14 14:26:46;;;;;;;19.42;11.18;;;6.60;99.90;;;;;;5067616;28;20418;-87
2023/12/14 14:29:46;;;;;;;19.50;10.85;;;;;;;;;;5084629;28;20728;-87
2023/12/14 14:32:45;;;;;;;19.00;10.93;;;;;;;;;;5102884;28;20930;-85
2023/12/14 14:35:11;;;;;;;17.23;10.63;;;;;;;;;;5071565;28;20475;-85
2023/12/14 14:37:53;;;;;;;16.73;10.73;;;;;;;;;;5096546;28;20455;-85
2023/12/14 14:43:42;;;;;;;19.33;10.90;;;;;;;;;;5085950;28;20778;-84
2023/12/14 14:46:09;;;;;;;18.83;11.18;;;;;;;;;;5068385;28;20419;-83
2023/12/14 14:48:38;;;;;;;18.42;11.20;;;;;;;;;;5051687;28;20423;-84
2023/12/14 14:55:01;;;;;;;16.67;10.68;;;;;;;;;;5103652;28;20502;-85
2023/12/14 15:00:38;;;;;;;18.92;10.60;;;;;;;;;;5089102;28;20416;-85
2023/12/14 15:03:41;;;;;;;;;;;;;;;;;;;;;
2023/12/14 15:06:37;;;;;;;17.15;10.70;;;;;;;;;;5056342;28;20429;-84
2023/12/14 15:11:52;;;;;;;16.93;9.67;;;;;;;;;;5061283;28;20921;-84
2023/12/14 15:14:47;;;;;;;14.57;9.32;;;;;;;;;;5067510;28;21089;-87
2023/12/14 15:18:41;;;;;;;16.63;10.25;;;;;;;;;;5069623;28;20421;-85
2023/12/14 15:21:33;;;;;;;17.10;9.93;;;;;;;;;;5022166;28;20537;-82
2023/12/14 15:23:59;;;;;;;17.60;9.93;;;;;;;;;;5005641;28;20947;-84
2023/12/14 15:26:48;;;;;;;13.75;8.98;;;;;;;;;;5015819;28;20433;-85
2023/12/14 15:29:15;;;;;;;14.52;9.43;;;;;;;;;;5035716;28;20423;-85
2023/12/14 15:31:42;;;;;;;14.95;9.50;;;;;;;;;;5028986;28;22582;-85
2023/12/14 15:34:10;;;;;;;16.10;9.15;;;;;;;;;;5003303;28;20413;-84
2023/12/14 15:36:36;;;;;;;16.38;9.45;;;;;;;;;;5056236;28;20406;-85
2023/12/14 15:46:15;;;;;;;;;;;;;;;;;;;;;
2023/12/14 15:59:14;;;;;;;19.90;10.27;;;;;;;;;;4992577;28;20461;-87
2023/12/14 16:01:58;;;;;;;17.17;10.35;;;;;;;;;;4983498;28;20416;-86
2023/12/14 16:05:03;;;;;;;17.92;10.45;;;;;;;;;;5013370;28;20824;-83
2023/12/14 16:07:56;;;;;;;17.08;10.52;;;;;;;;;;4968594;28;20403;-86
2023/12/14 16:10:30;;;;;;;19.90;11.10;;;;;;;;;;5004790;28;21210;-87
2023/12/14 16:13:29;;;;;;;19.17;10.73;;;;;;;;;;4978415;28;20738;-87
2023/12/14 16:16:08;;;;;;;18.70;10.88;;;;;;;;;;5024727;28;20500;-85
2023/12/14 16:19:11;;;;;;;22.77;11.43;;;;;;;;;;5000349;28;20437;-89
2023/12/14 16:21:58;;;;;;;18.83;10.73;;;;;;;;;;5022725;28;20431;-88
2023/12/14 16:24:33;;;;;;;16.60;10.27;;;;;;;;;;5029875;28;20497;-88
2023/12/14 16:27:05;;;;;;;19.90;10.73;;;;;;;;;;5007902;28;20477;-86
2023/12/14 16:29:36;;;;;;;19.70;11.48;;;;;;;;;;4994051;28;20405;-86
2023/12/14 16:32:35;;;;;;;20.85;11.77;;;;;;;;;;5052963;28;20423;-86
2023/12/14 16:37:59;;;;;;;21.08;12.65;;;;;;;;;;5105163;27;20390;-86